createdAt,value
2018-09-05T00:02:06.999Z,24.60
2018-09-05T00:04:35.337Z,24.60
2018-09-05T00:07:03.625Z,24.50
2018-09-05T00:09:31.918Z,24.50
2018-09-05T00:12:00.211Z,24.50
2018-09-05T00:14:28.582Z,24.50
2018-09-05T00:16:56.853Z,24.40
2018-09-05T00:19:25.149Z,24.40
2018-09-05T00:21:53.445Z,24.40
2018-09-05T00:24:21.755Z,24.30
2018-09-05T00:26:50.051Z,24.30
2018-09-05T00:29:18.480Z,24.30
2018-09-05T00:31:46.835Z,24.30
2018-09-05T00:34:15.188Z,24.30
2018-09-05T00:36:43.525Z,24.20
2018-09-05T00:39:11.884Z,24.20
2018-09-05T00:41:40.204Z,24.20
2018-09-05T00:44:08.495Z,24.20
2018-09-05T00:46:36.823Z,24.20
2018-09-05T00:49:05.494Z,24.20
2018-09-05T00:51:33.822Z,24.20
2018-09-05T00:54:02.121Z,24.10
2018-09-05T00:56:30.412Z,24.20
2018-09-05T00:58:58.703Z,24.10
2018-09-05T01:01:27.547Z,24.10
2018-09-05T01:03:55.898Z,24.10
2018-09-05T01:06:24.285Z,24.00
2018-09-05T01:08:52.690Z,24.00
2018-09-05T01:11:21.131Z,24.00
2018-09-05T01:13:49.598Z,24.00
2018-09-05T01:16:18.313Z,24.00
2018-09-05T01:18:46.611Z,23.90
2018-09-05T01:21:14.924Z,24.00
2018-09-05T01:23:43.296Z,23.90
2018-09-05T01:26:11.625Z,23.90
2018-09-05T01:28:39.983Z,23.90
2018-09-05T01:31:08.247Z,23.80
2018-09-05T01:33:36.843Z,23.80
2018-09-05T01:36:11.798Z,23.80
2018-09-05T01:38:41.019Z,23.70
2018-09-05T01:41:09.739Z,23.70
2018-09-05T01:43:38.313Z,23.70
2018-09-05T01:46:06.608Z,23.70
2018-09-05T01:48:35.336Z,23.70
2018-09-05T01:51:03.896Z,23.60
2018-09-05T01:53:32.293Z,23.70
2018-09-05T01:56:00.908Z,23.70
2018-09-05T01:58:29.260Z,23.60
2018-09-05T02:00:57.817Z,23.60
2018-09-05T02:03:26.100Z,23.60
2018-09-05T02:05:54.422Z,23.60
2018-09-05T02:08:22.778Z,23.60
2018-09-05T02:10:51.205Z,23.50
2018-09-05T02:13:19.556Z,23.50
2018-09-05T02:15:47.924Z,23.50
2018-09-05T02:18:16.260Z,23.40
2018-09-05T02:20:44.564Z,23.40
2018-09-05T02:26:20.917Z,23.40
2018-09-05T02:28:49.321Z,23.40
2018-09-05T02:31:17.931Z,23.40
2018-09-05T02:33:46.611Z,23.50
2018-09-05T02:36:14.982Z,23.40
2018-09-05T02:38:43.273Z,23.50
2018-09-05T02:41:11.560Z,23.50
2018-09-05T02:43:45.199Z,23.90
2018-09-05T02:46:13.563Z,23.40
2018-09-05T02:48:41.843Z,23.40
2018-09-05T02:51:10.241Z,23.40
2018-09-05T02:53:38.510Z,23.40
2018-09-05T02:56:06.840Z,23.30
2018-09-05T02:58:35.491Z,23.30
2018-09-05T03:01:03.827Z,23.30
2018-09-05T03:03:32.200Z,23.30
2018-09-05T03:06:00.623Z,23.30
2018-09-05T03:08:28.913Z,23.30
2018-09-05T03:10:57.262Z,23.20
2018-09-05T03:13:25.569Z,23.20
2018-09-05T03:15:53.943Z,23.20
2018-09-05T03:18:22.250Z,23.30
2018-09-05T03:20:50.584Z,23.20
2018-09-05T03:23:18.869Z,23.20
2018-09-05T03:25:47.247Z,23.20
2018-09-05T03:28:15.569Z,23.20
2018-09-05T03:30:44.004Z,23.20
2018-09-05T03:33:12.346Z,23.10
2018-09-05T03:35:40.595Z,23.10
2018-09-05T03:38:09.019Z,23.00
2018-09-05T03:40:37.368Z,22.90
2018-09-05T03:43:05.723Z,22.90
2018-09-05T03:45:34.054Z,22.90
2018-09-05T03:48:02.335Z,22.80
2018-09-05T03:50:30.675Z,22.80
2018-09-05T03:52:58.966Z,22.80
2018-09-05T03:55:27.272Z,22.70
2018-09-05T03:57:55.548Z,22.70
2018-09-05T04:00:23.859Z,22.70
2018-09-05T04:02:52.496Z,22.60
2018-09-05T04:05:20.881Z,22.60
2018-09-05T04:07:49.203Z,22.60
2018-09-05T04:10:17.515Z,22.60
2018-09-05T04:12:46.048Z,22.50
2018-09-05T04:15:14.581Z,22.50
2018-09-05T04:17:43.190Z,22.50
2018-09-05T04:20:11.461Z,22.50
2018-09-05T04:22:39.801Z,22.50
2018-09-05T04:25:08.196Z,22.50
2018-09-05T04:27:36.535Z,22.50
2018-09-05T04:30:04.923Z,22.50
2018-09-05T04:32:33.351Z,22.40
2018-09-05T04:35:01.684Z,22.40
2018-09-05T04:37:30.409Z,22.30
2018-09-05T04:39:58.852Z,22.20
2018-09-05T04:42:27.601Z,22.20
2018-09-05T04:44:56.024Z,22.10
2018-09-05T04:47:24.333Z,22.10
2018-09-05T04:49:52.633Z,22.10
2018-09-05T04:52:20.975Z,22.10
2018-09-05T04:54:49.696Z,22.00
2018-09-05T04:57:17.991Z,21.90
2018-09-05T04:59:46.361Z,22.00
2018-09-05T05:02:15.004Z,21.90
2018-09-05T05:04:43.408Z,21.90
2018-09-05T05:07:11.915Z,21.90
2018-09-05T05:09:40.194Z,21.90
2018-09-05T05:12:08.568Z,21.90
2018-09-05T05:14:36.840Z,21.90
2018-09-05T05:17:05.205Z,21.90
2018-09-05T05:19:33.599Z,21.90
2018-09-05T05:22:02.248Z,21.90
2018-09-05T05:24:30.565Z,22.00
2018-09-05T05:26:59.100Z,22.00
2018-09-05T05:29:27.460Z,22.00
2018-09-05T05:31:55.884Z,22.00
2018-09-05T05:34:24.236Z,22.10
2018-09-05T05:36:53.055Z,22.00
2018-09-05T05:39:21.411Z,22.00
2018-09-05T05:41:49.760Z,22.00
2018-09-05T05:44:18.125Z,22.00
2018-09-05T05:46:46.507Z,22.00
2018-09-05T05:49:14.981Z,22.00
2018-09-05T05:51:43.553Z,22.10
2018-09-05T05:54:11.931Z,22.20
2018-09-05T05:56:40.251Z,22.20
2018-09-05T05:59:08.554Z,22.30
2018-09-05T06:01:36.909Z,22.30
2018-09-05T06:04:05.245Z,22.30
2018-09-05T06:06:33.559Z,22.30
2018-09-05T06:09:01.945Z,22.40
2018-09-05T06:11:30.475Z,22.40
2018-09-05T06:13:58.765Z,22.50
2018-09-05T06:16:27.068Z,22.50
2018-09-05T06:18:55.451Z,22.60
2018-09-05T06:21:23.863Z,22.70
2018-09-05T06:23:52.196Z,22.70
2018-09-05T06:26:20.563Z,22.80
2018-09-05T06:28:48.869Z,22.80
2018-09-05T06:31:17.515Z,22.90
2018-09-05T06:33:45.653Z,23.00
2018-09-05T06:36:13.973Z,23.10
2018-09-05T06:38:42.264Z,23.20
2018-09-05T06:41:10.585Z,23.30
2018-09-05T06:43:39.147Z,23.40
2018-09-05T06:46:07.491Z,23.50
2018-09-05T06:48:35.815Z,23.60
2018-09-05T06:51:07.171Z,23.70
2018-09-05T06:53:37.107Z,23.80
2018-09-05T06:56:05.451Z,24.00
2018-09-05T06:58:34.195Z,24.10
2018-09-05T07:01:02.487Z,24.20
2018-09-05T07:03:30.825Z,24.30
2018-09-05T07:05:59.187Z,24.40
2018-09-05T07:08:27.484Z,24.60
2018-09-05T07:10:55.812Z,24.70
2018-09-05T07:13:24.177Z,24.80
2018-09-05T07:15:52.523Z,24.90
2018-09-05T07:18:20.859Z,25.10
2018-09-05T07:20:49.163Z,25.30
2018-09-05T07:23:17.604Z,25.40
2018-09-05T07:25:45.994Z,25.50
2018-09-05T07:28:14.355Z,25.70
2018-09-05T07:30:42.856Z,25.80
2018-09-05T07:33:11.267Z,26.00
2018-09-05T07:35:39.573Z,26.10
2018-09-05T07:38:08.124Z,26.30
2018-09-05T07:40:36.592Z,26.40
2018-09-05T07:43:05.484Z,26.60
2018-09-05T07:45:34.020Z,26.70
2018-09-05T07:48:02.328Z,26.80
2018-09-05T07:50:31.853Z,26.90
2018-09-05T07:53:00.152Z,27.00
2018-09-05T07:55:28.555Z,27.10
2018-09-05T07:57:56.840Z,27.30
2018-09-05T08:00:25.120Z,27.40
2018-09-05T08:02:53.552Z,27.60
2018-09-05T08:05:21.880Z,27.70
2018-09-05T08:07:50.234Z,27.80
2018-09-05T08:10:18.531Z,28.00
2018-09-05T08:12:46.851Z,28.30
2018-09-05T08:15:15.174Z,28.50
2018-09-05T08:17:43.609Z,28.80
2018-09-05T08:20:12.001Z,29.10
2018-09-05T08:22:40.336Z,29.40
2018-09-05T08:25:08.624Z,29.80
2018-09-05T08:27:36.988Z,30.30
2018-09-05T08:30:05.549Z,30.90
2018-09-05T08:32:33.961Z,31.60
2018-09-05T08:35:02.580Z,32.30
2018-09-05T08:37:30.948Z,33.10
2018-09-05T08:39:59.103Z,33.90
2018-09-05T08:42:31.777Z,34.70
2018-09-05T08:45:00.589Z,35.50
2018-09-05T08:47:28.917Z,36.40
2018-09-05T08:49:57.529Z,37.10
2018-09-05T08:52:25.786Z,37.90
2018-09-05T08:54:54.071Z,38.70
2018-09-05T08:57:22.416Z,39.40
2018-09-05T08:59:50.840Z,40.00
2018-09-05T09:02:19.551Z,40.70
2018-09-05T09:04:47.929Z,41.30
2018-09-05T09:07:16.379Z,41.80
2018-09-05T09:09:44.695Z,42.30
2018-09-05T09:12:13.044Z,42.70
2018-09-05T09:14:41.453Z,43.10
2018-09-05T09:17:09.743Z,43.50
2018-09-05T09:19:38.076Z,43.90
2018-09-05T09:22:06.542Z,44.20
2018-09-05T09:24:34.976Z,44.50
2018-09-05T09:27:03.352Z,44.70
2018-09-05T09:29:31.677Z,45.00
2018-09-05T09:32:00.180Z,45.40
2018-09-05T09:34:28.499Z,45.70
2018-09-05T09:36:56.831Z,46.00
2018-09-05T09:39:25.208Z,46.30
2018-09-05T09:41:53.527Z,46.60
2018-09-05T09:44:21.857Z,46.80
2018-09-05T09:46:50.474Z,47.10
2018-09-05T09:49:19.009Z,47.40
2018-09-05T09:51:47.393Z,47.70
2018-09-05T09:54:15.766Z,48.00
2018-09-05T09:56:44.167Z,48.20
2018-09-05T09:59:12.484Z,48.40
2018-09-05T10:01:46.280Z,48.60
2018-09-05T10:04:20.044Z,48.60
2018-09-05T10:06:54.814Z,48.70
2018-09-05T10:09:28.512Z,48.70
2018-09-05T10:12:02.281Z,48.90
2018-09-05T10:14:31.694Z,49.00
2018-09-05T10:17:05.426Z,49.00
2018-09-05T10:19:34.284Z,49.10
2018-09-05T10:22:02.623Z,49.30
2018-09-05T10:24:30.984Z,49.40
2018-09-05T10:26:59.257Z,49.60
2018-09-05T10:29:27.568Z,49.70
2018-09-05T10:31:55.880Z,49.80
2018-09-05T10:34:24.539Z,50.00
2018-09-05T10:36:52.818Z,49.80
2018-09-05T10:39:21.242Z,49.20
2018-09-05T10:41:49.765Z,48.30
2018-09-05T10:44:18.295Z,47.40
2018-09-05T10:46:46.809Z,46.70
2018-09-05T10:49:15.119Z,46.10
2018-09-05T10:51:48.948Z,46.00
2018-09-05T10:54:17.536Z,46.30
2018-09-05T10:56:46.011Z,46.70
2018-09-05T10:59:14.344Z,47.20
2018-09-05T11:01:42.695Z,47.80
2018-09-05T11:04:11.027Z,48.30
2018-09-05T11:06:39.357Z,48.80
2018-09-05T11:09:10.084Z,49.10
2018-09-05T11:11:38.567Z,48.90
2018-09-05T11:14:07.691Z,48.10
2018-09-05T11:16:36.168Z,47.50
2018-09-05T11:19:04.663Z,47.10
2018-09-05T11:21:33.022Z,47.10
2018-09-05T11:24:01.378Z,47.40
2018-09-05T11:26:29.694Z,47.70
2018-09-05T11:28:58.601Z,48.10
2018-09-05T11:31:27.175Z,48.50
2018-09-05T11:33:55.546Z,48.90
2018-09-05T11:36:24.661Z,49.20
2018-09-05T11:38:53.003Z,49.70
2018-09-05T11:41:22.035Z,50.10
2018-09-05T11:43:50.771Z,50.40
2018-09-05T11:46:19.305Z,50.70
2018-09-05T11:48:47.624Z,51.00
2018-09-05T11:51:16.097Z,51.00
2018-09-05T11:53:44.380Z,50.70
2018-09-05T11:56:12.711Z,50.60
2018-09-05T11:58:40.987Z,50.30
2018-09-05T12:01:09.327Z,50.20
2018-09-05T12:03:37.721Z,50.20
2018-09-05T12:06:06.211Z,50.30
2018-09-05T12:08:34.504Z,50.50
2018-09-05T12:11:02.813Z,50.70
2018-09-05T12:13:32.227Z,51.00
2018-09-05T12:16:00.638Z,51.30
2018-09-05T12:18:29.051Z,51.50
2018-09-05T12:20:57.374Z,51.40
2018-09-05T12:23:25.875Z,51.00
2018-09-05T12:25:54.177Z,50.80
2018-09-05T12:28:22.528Z,50.70
2018-09-05T12:30:50.879Z,50.60
2018-09-05T12:33:19.188Z,50.40
2018-09-05T12:35:47.487Z,50.10
2018-09-05T12:38:16.253Z,49.60
2018-09-05T12:40:44.588Z,48.60
2018-09-05T12:43:12.907Z,47.30
2018-09-05T12:45:41.369Z,46.20
2018-09-05T12:48:09.668Z,45.10
2018-09-05T12:50:37.961Z,44.50
2018-09-05T12:53:06.314Z,44.60
2018-09-05T12:55:34.673Z,45.10
2018-09-05T12:58:02.960Z,45.70
2018-09-05T13:00:31.284Z,46.40
2018-09-05T13:02:59.655Z,47.10
2018-09-05T13:05:27.969Z,47.70
2018-09-05T13:07:56.264Z,48.50
2018-09-05T13:10:24.559Z,49.00
2018-09-05T13:12:52.841Z,49.60
2018-09-05T13:15:21.209Z,50.00
2018-09-05T13:17:49.605Z,50.30
2018-09-05T13:20:17.955Z,50.50
2018-09-05T13:22:46.331Z,50.40
2018-09-05T13:25:14.586Z,50.30
2018-09-05T13:27:42.904Z,49.90
2018-09-05T13:30:11.252Z,49.50
2018-09-05T13:32:39.632Z,49.20
2018-09-05T13:35:08.216Z,49.00
2018-09-05T13:37:36.525Z,48.90
2018-09-05T13:40:05.045Z,48.80
2018-09-05T13:42:33.379Z,48.80
2018-09-05T13:45:01.763Z,48.90
2018-09-05T13:47:30.565Z,48.90
2018-09-05T13:49:58.877Z,49.00
2018-09-05T13:52:27.406Z,49.10
2018-09-05T13:54:55.756Z,49.30
2018-09-05T13:57:24.108Z,49.20
2018-09-05T13:59:52.390Z,49.00
2018-09-05T14:02:20.725Z,48.80
2018-09-05T14:04:49.265Z,48.70
2018-09-05T14:07:17.695Z,48.70
2018-09-05T14:09:46.468Z,48.70
2018-09-05T14:12:15.280Z,48.80
2018-09-05T14:14:43.903Z,48.80
2018-09-05T14:17:12.529Z,48.80
2018-09-05T14:19:40.850Z,48.70
2018-09-05T14:22:09.235Z,48.60
2018-09-05T14:24:37.553Z,48.50
2018-09-05T14:27:05.898Z,48.30
2018-09-05T14:29:34.237Z,48.10
2018-09-05T14:32:02.575Z,47.60
2018-09-05T14:34:30.941Z,47.00
2018-09-05T14:36:59.441Z,46.20
2018-09-05T14:39:28.004Z,45.40
2018-09-05T14:41:56.313Z,44.60
2018-09-05T14:44:24.611Z,43.90
2018-09-05T14:46:52.936Z,43.20
2018-09-05T14:49:21.233Z,42.60
2018-09-05T14:51:51.163Z,41.90
2018-09-05T14:54:19.930Z,41.30
2018-09-05T14:56:48.529Z,40.60
2018-09-05T14:59:16.891Z,39.90
2018-09-05T15:01:45.723Z,39.30
2018-09-05T15:04:14.060Z,38.70
2018-09-05T15:06:42.771Z,38.20
2018-09-05T15:09:12.771Z,37.80
2018-09-05T15:11:41.451Z,37.40
2018-09-05T15:14:15.164Z,37.00
2018-09-05T15:16:58.201Z,36.60
2018-09-05T15:19:32.535Z,36.10
2018-09-05T15:22:09.433Z,35.70
2018-09-05T15:24:44.462Z,35.40
2018-09-05T15:27:19.518Z,35.10
2018-09-05T15:29:50.048Z,35.00
2018-09-05T15:32:29.415Z,34.80
2018-09-05T15:37:39.215Z,34.40
2018-09-05T15:40:07.571Z,34.30
2018-09-05T15:42:35.911Z,34.20
2018-09-05T15:45:04.340Z,34.10
2018-09-05T15:47:33.222Z,33.90
2018-09-05T15:50:01.711Z,33.80
2018-09-05T15:52:30.040Z,33.70
2018-09-05T15:54:58.438Z,33.60
2018-09-05T15:57:26.780Z,33.30
2018-09-05T15:59:55.147Z,33.20
2018-09-05T16:02:23.484Z,33.10
2018-09-05T16:04:52.035Z,33.10
2018-09-05T16:07:20.645Z,33.00
2018-09-05T16:09:49.024Z,33.00
2018-09-05T16:12:17.323Z,32.90
2018-09-05T16:14:46.528Z,32.80
2018-09-05T16:17:14.915Z,32.70
2018-09-05T16:19:43.339Z,32.50
2018-09-05T16:22:11.640Z,32.50
2018-09-05T16:24:39.926Z,32.30
2018-09-05T16:27:08.286Z,32.20
2018-09-05T16:29:36.673Z,32.10
2018-09-05T16:32:04.982Z,31.90
2018-09-05T16:34:33.328Z,31.90
2018-09-05T16:37:01.598Z,31.80
2018-09-05T16:39:30.082Z,31.70
2018-09-05T16:41:58.575Z,31.60
2018-09-05T16:44:27.043Z,31.50
2018-09-05T16:46:55.339Z,31.40
2018-09-05T16:49:23.655Z,31.40
2018-09-05T16:51:52.104Z,31.30
2018-09-05T16:54:20.476Z,31.30
2018-09-05T16:56:49.064Z,31.30
2018-09-05T16:59:17.399Z,31.20
2018-09-05T17:01:45.716Z,31.10
2018-09-05T17:04:14.138Z,31.10
2018-09-05T17:06:42.464Z,31.10
2018-09-05T17:09:12.212Z,31.00
2018-09-05T17:11:40.695Z,30.90
2018-09-05T17:14:09.029Z,30.80
2018-09-05T17:16:37.382Z,30.70
2018-09-05T17:19:05.780Z,30.60
2018-09-05T17:21:34.056Z,30.50
2018-09-05T17:24:02.425Z,30.50
2018-09-05T17:26:30.752Z,30.50
2018-09-05T17:28:59.127Z,30.50
2018-09-05T17:31:27.407Z,30.40
2018-09-05T17:33:55.783Z,30.40
2018-09-05T17:36:24.079Z,30.40
2018-09-05T17:38:52.523Z,30.30
2018-09-05T17:41:20.959Z,30.20
2018-09-05T17:43:49.395Z,30.20
2018-09-05T17:46:18.043Z,30.10
2018-09-05T17:48:46.486Z,30.10
2018-09-05T17:51:15.440Z,30.00
2018-09-05T17:53:43.837Z,30.00
2018-09-05T17:56:12.124Z,29.90
2018-09-05T17:58:40.502Z,29.90
2018-09-05T18:01:11.619Z,29.80
2018-09-05T18:03:40.082Z,29.80
2018-09-05T18:06:08.397Z,29.70
2018-09-05T18:08:36.721Z,29.70
2018-09-05T18:11:05.173Z,29.60
2018-09-05T18:13:33.568Z,29.60
2018-09-05T18:16:01.903Z,29.50
2018-09-05T18:18:30.293Z,29.50
2018-09-05T18:20:58.692Z,29.40
2018-09-05T18:23:27.064Z,29.40
2018-09-05T18:25:55.639Z,29.30
2018-09-05T18:28:23.916Z,29.20
2018-09-05T18:30:52.449Z,29.20
2018-09-05T18:33:20.751Z,29.10
2018-09-05T18:35:49.394Z,29.10
2018-09-05T18:38:17.984Z,29.00
2018-09-05T18:40:46.439Z,29.00
2018-09-05T18:43:14.776Z,28.90
2018-09-05T18:45:43.239Z,28.90
2018-09-05T18:48:11.528Z,28.80
2018-09-05T18:50:39.832Z,28.80
2018-09-05T18:53:10.098Z,28.70
2018-09-05T18:55:39.063Z,28.60
2018-09-05T18:58:07.694Z,28.60
2018-09-05T19:00:36.404Z,28.50
2018-09-05T19:03:04.731Z,28.40
2018-09-05T19:05:33.228Z,28.40
2018-09-05T19:08:01.569Z,28.40
2018-09-05T19:10:29.913Z,28.30
2018-09-05T19:12:58.248Z,28.30
2018-09-05T19:15:26.803Z,28.20
2018-09-05T19:17:55.259Z,28.20
2018-09-05T19:20:23.986Z,28.10
2018-09-05T19:22:52.380Z,28.10
2018-09-05T19:25:20.752Z,28.10
2018-09-05T19:27:49.783Z,28.10
2018-09-05T19:30:18.132Z,28.00
2018-09-05T19:32:46.534Z,27.90
2018-09-05T19:35:15.011Z,27.90
2018-09-05T19:37:43.364Z,27.80
2018-09-05T19:40:11.667Z,27.80
2018-09-05T19:42:40.136Z,27.80
2018-09-05T19:45:08.811Z,27.80
2018-09-05T19:47:37.328Z,27.70
2018-09-05T19:50:06.487Z,27.70
2018-09-05T19:52:35.553Z,27.60
2018-09-05T19:55:04.133Z,27.60
2018-09-05T19:57:32.736Z,27.60
2018-09-05T20:00:01.130Z,27.60
2018-09-05T20:02:29.595Z,27.60
2018-09-05T20:04:57.919Z,27.50
2018-09-05T20:07:26.377Z,27.50
2018-09-05T20:09:54.987Z,27.40
2018-09-05T20:12:23.338Z,27.50
2018-09-05T20:14:51.999Z,27.40
2018-09-05T20:17:20.317Z,27.40
2018-09-05T20:19:49.136Z,27.40
2018-09-05T20:22:17.611Z,27.40
2018-09-05T20:24:46.320Z,27.40
2018-09-05T20:27:15.273Z,27.40
2018-09-05T20:29:43.676Z,27.40
2018-09-05T20:32:11.956Z,27.30
2018-09-05T20:34:40.264Z,27.30
2018-09-05T20:37:08.680Z,27.30
2018-09-05T20:39:36.968Z,27.30
2018-09-05T20:42:05.301Z,27.30
2018-09-05T20:44:33.608Z,27.20
2018-09-05T20:47:01.955Z,27.20
2018-09-05T20:49:30.291Z,27.10
2018-09-05T20:51:58.670Z,27.10
2018-09-05T20:54:26.972Z,27.00
2018-09-05T20:56:55.275Z,27.00
2018-09-05T20:59:23.683Z,26.90
2018-09-05T21:01:52.147Z,26.90
2018-09-05T21:04:20.525Z,26.90
2018-09-05T21:06:48.848Z,26.90
2018-09-05T21:09:17.410Z,26.90
2018-09-05T21:11:45.830Z,26.90
2018-09-05T21:14:14.178Z,26.90
2018-09-05T21:16:42.533Z,26.90
2018-09-05T21:19:11.477Z,26.90
2018-09-05T21:21:39.807Z,26.90
2018-09-05T21:24:08.179Z,26.90
2018-09-05T21:26:36.629Z,26.90
2018-09-05T21:29:04.946Z,26.90
2018-09-05T21:31:33.349Z,26.90
2018-09-05T21:34:01.849Z,26.90
2018-09-05T21:36:30.187Z,26.90
2018-09-05T21:38:58.569Z,26.90
2018-09-05T21:41:26.847Z,26.90
2018-09-05T21:43:55.708Z,26.90
2018-09-05T21:46:23.979Z,26.90
2018-09-05T21:48:52.348Z,26.90
2018-09-05T21:51:20.689Z,26.90
2018-09-05T21:53:49.028Z,26.90
2018-09-05T21:56:17.367Z,26.90
2018-09-05T21:58:45.766Z,26.90
2018-09-05T22:01:14.080Z,26.80
2018-09-05T22:03:42.521Z,26.80
2018-09-05T22:06:10.864Z,26.90
2018-09-05T22:08:39.180Z,26.80
2018-09-05T22:11:38.464Z,26.80
2018-09-05T22:14:06.943Z,26.80
2018-09-05T22:16:35.297Z,26.80
2018-09-05T22:19:03.729Z,26.80
2018-09-05T22:21:32.032Z,26.80
2018-09-05T22:24:00.401Z,26.80
2018-09-05T22:26:28.714Z,26.80
2018-09-05T22:28:57.070Z,26.80
2018-09-05T22:31:25.431Z,26.90
2018-09-05T22:33:53.739Z,26.90
2018-09-05T22:36:22.046Z,26.90
2018-09-05T22:38:50.342Z,26.90
2018-09-05T22:41:18.757Z,26.90
2018-09-05T22:43:58.201Z,26.90
2018-09-05T22:46:37.992Z,27.00
2018-09-05T22:53:35.063Z,27.00
2018-09-05T22:56:20.320Z,27.00
2018-09-05T22:58:59.233Z,26.60
2018-09-05T23:01:39.426Z,26.60
2018-09-05T23:04:21.245Z,26.60
2018-09-05T23:08:57.875Z,26.60
2018-09-05T23:11:44.539Z,26.60
2018-09-05T23:14:36.286Z,26.50
2018-09-05T23:17:16.051Z,26.50
2018-09-05T23:21:09.828Z,26.50
2018-09-05T23:23:49.465Z,26.50
2018-09-05T23:26:17.863Z,26.50
2018-09-05T23:28:46.271Z,26.40
2018-09-05T23:31:14.630Z,26.40
2018-09-05T23:33:42.984Z,26.50
2018-09-05T23:36:11.348Z,26.50
2018-09-05T23:38:39.676Z,26.50
2018-09-05T23:41:08.372Z,26.50
2018-09-05T23:43:36.741Z,26.50
2018-09-05T23:46:05.180Z,26.50
2018-09-05T23:48:33.560Z,26.50
2018-09-05T23:51:01.947Z,26.60
2018-09-05T23:53:30.229Z,26.50
2018-09-05T23:55:58.537Z,26.60
2018-09-05T23:58:26.870Z,26.60
